createdAt,value
2023-04-07T00:02:06.377Z,42.13
2023-04-07T00:04:33.420Z,42.44
2023-04-07T00:07:00.113Z,42.86
2023-04-07T00:09:34.154Z,43.39
2023-04-07T00:12:03.455Z,43.31
2023-04-07T00:14:30.226Z,42.48
2023-04-07T00:16:56.827Z,42.39
2023-04-07T00:19:25.190Z,43.02
2023-04-07T00:21:52.940Z,43.34
2023-04-07T00:24:27.385Z,43.09
2023-04-07T00:27:00.352Z,43.36
2023-04-07T00:29:26.919Z,43.76
2023-04-07T00:31:54.604Z,43.35
2023-04-07T00:34:21.552Z,43.36
2023-04-07T00:36:51.639Z,43.61
2023-04-07T00:39:18.851Z,43.01
2023-04-07T00:41:47.113Z,42.57
2023-04-07T00:44:13.862Z,43.18
2023-04-07T00:46:40.797Z,42.84
2023-04-07T00:49:10.623Z,42.90
2023-04-07T00:51:38.315Z,42.57
2023-04-07T00:54:05.913Z,42.72
2023-04-07T00:56:32.622Z,43.50
2023-04-07T00:58:59.187Z,44.33
2023-04-07T01:01:30.306Z,43.89
2023-04-07T01:04:01.963Z,43.50
2023-04-07T01:06:31.238Z,43.50
2023-04-07T01:09:02.771Z,43.55
2023-04-07T01:11:40.561Z,43.07
2023-04-07T01:14:07.213Z,42.79
2023-04-07T01:16:47.728Z,43.11
2023-04-07T01:19:34.100Z,43.14
2023-04-07T01:22:01.055Z,42.75
2023-04-07T01:25:00.522Z,42.54
2023-04-07T01:27:56.678Z,42.83
2023-04-07T01:30:23.214Z,43.07
2023-04-07T01:32:52.539Z,42.77
2023-04-07T01:35:20.507Z,42.92
2023-04-07T01:37:48.228Z,43.30
2023-04-07T01:40:15.224Z,43.03
2023-04-07T01:42:42.299Z,41.95
2023-04-07T01:45:09.010Z,41.27
2023-04-07T01:47:36.907Z,40.78
2023-04-07T01:50:04.855Z,40.56
2023-04-07T01:52:32.966Z,40.60
2023-04-07T01:54:59.683Z,39.89
2023-04-07T01:57:26.401Z,40.09
2023-04-07T01:59:58.819Z,40.35
2023-04-07T02:02:28.783Z,40.20
2023-04-07T02:05:02.466Z,39.82
2023-04-07T02:07:42.387Z,39.58
2023-04-07T02:10:11.454Z,38.91
2023-04-07T02:12:39.176Z,38.79
2023-04-07T02:15:11.065Z,39.06
2023-04-07T02:17:44.486Z,38.95
2023-04-07T02:20:11.474Z,39.08
2023-04-07T02:22:38.733Z,38.86
2023-04-07T02:25:21.316Z,38.79
2023-04-07T02:27:48.497Z,38.78
2023-04-07T02:30:16.992Z,38.76
2023-04-07T02:32:45.161Z,39.23
2023-04-07T02:35:11.856Z,38.86
2023-04-07T02:37:38.845Z,38.65
2023-04-07T02:40:06.542Z,38.68
2023-04-07T02:42:33.354Z,38.55
2023-04-07T02:45:00.276Z,38.81
2023-04-07T02:47:26.838Z,38.96
2023-04-07T02:49:53.443Z,38.97
2023-04-07T02:52:20.231Z,38.70
2023-04-07T02:54:47.231Z,38.19
2023-04-07T02:57:14.947Z,38.07
2023-04-07T02:59:41.517Z,38.13
2023-04-07T03:02:08.930Z,38.53
2023-04-07T03:04:37.419Z,38.97
2023-04-07T03:07:04.022Z,38.68
2023-04-07T03:09:31.357Z,39.10
2023-04-07T03:11:59.059Z,39.28
2023-04-07T03:14:28.780Z,38.45
2023-04-07T03:16:55.822Z,38.70
2023-04-07T03:19:22.377Z,39.07
2023-04-07T03:21:49.951Z,38.96
2023-04-07T03:24:17.759Z,39.04
2023-04-07T03:26:46.575Z,38.98
2023-04-07T03:29:23.692Z,38.98
2023-04-07T03:31:52.039Z,38.41
2023-04-07T03:34:20.873Z,38.75
2023-04-07T03:36:47.484Z,38.41
2023-04-07T03:39:14.769Z,38.48
2023-04-07T03:41:41.349Z,38.98
2023-04-07T03:44:07.943Z,38.36
2023-04-07T03:46:36.214Z,38.58
2023-04-07T03:49:03.433Z,39.00
2023-04-07T03:51:32.370Z,38.60
2023-04-07T03:54:05.168Z,38.84
2023-04-07T03:56:36.694Z,38.94
2023-04-07T03:59:05.911Z,38.98
2023-04-07T04:01:36.617Z,39.15
2023-04-07T04:04:15.218Z,38.85
2023-04-07T04:06:47.760Z,38.75
2023-04-07T04:09:20.944Z,38.33
2023-04-07T04:11:48.381Z,37.84
2023-04-07T04:14:16.040Z,37.58
2023-04-07T04:16:46.155Z,38.12
2023-04-07T04:19:31.663Z,38.03
2023-04-07T04:22:00.865Z,37.82
2023-04-07T04:24:28.051Z,37.60
2023-04-07T04:26:57.326Z,37.47
2023-04-07T04:29:24.663Z,37.52
2023-04-07T04:31:51.986Z,38.06
2023-04-07T04:34:25.803Z,37.90
2023-04-07T04:36:53.772Z,37.58
2023-04-07T04:39:20.947Z,37.08
2023-04-07T04:41:48.078Z,36.84
2023-04-07T04:44:15.335Z,37.12
2023-04-07T04:46:43.130Z,37.10
2023-04-07T04:49:10.466Z,36.97
2023-04-07T04:51:37.882Z,37.03
2023-04-07T04:54:15.799Z,37.36
2023-04-07T04:56:43.712Z,37.67
2023-04-07T04:59:10.848Z,37.91
2023-04-07T05:01:42.625Z,37.65
2023-04-07T05:04:12.641Z,37.03
2023-04-07T05:06:43.978Z,36.87
2023-04-07T05:09:12.531Z,36.48
2023-04-07T05:11:47.267Z,36.66
2023-04-07T05:14:15.119Z,36.69
2023-04-07T05:16:46.706Z,36.01
2023-04-07T05:19:18.687Z,35.77
2023-04-07T05:21:45.815Z,35.80
2023-04-07T05:24:13.267Z,36.03
2023-04-07T05:26:41.232Z,35.89
2023-04-07T05:29:08.075Z,35.52
2023-04-07T05:31:36.678Z,35.07
2023-04-07T05:34:06.107Z,34.60
2023-04-07T05:36:35.550Z,34.62
2023-04-07T05:39:03.633Z,34.05
2023-04-07T05:41:30.724Z,33.34
2023-04-07T05:44:00.508Z,32.75
2023-04-07T05:46:28.575Z,32.26
2023-04-07T05:48:57.963Z,31.67
2023-04-07T05:51:27.591Z,31.42
2023-04-07T05:53:55.263Z,30.90
2023-04-07T05:56:23.373Z,31.04
2023-04-07T06:01:14.500Z,32.86
2023-04-07T06:03:47.085Z,30.98
2023-04-07T06:06:19.040Z,30.83
2023-04-07T06:08:48.372Z,30.22
2023-04-07T06:11:18.842Z,29.46
2023-04-07T06:13:47.055Z,28.95
2023-04-07T06:16:17.479Z,28.40
2023-04-07T06:18:51.670Z,28.30
2023-04-07T06:21:24.584Z,27.54
2023-04-07T06:24:03.423Z,26.38
2023-04-07T06:26:31.847Z,25.35
2023-04-07T06:29:08.087Z,25.30
2023-04-07T06:31:37.755Z,25.35
2023-04-07T06:34:11.276Z,25.50
2023-04-07T06:36:53.740Z,24.84
2023-04-07T06:39:26.421Z,24.06
2023-04-07T06:42:00.132Z,24.31
2023-04-07T06:44:28.551Z,24.02
2023-04-07T06:46:55.969Z,23.97
2023-04-07T06:49:29.452Z,24.17
2023-04-07T06:51:58.043Z,23.78
2023-04-07T06:54:26.520Z,22.85
2023-04-07T06:56:59.461Z,22.73
2023-04-07T06:59:28.842Z,22.35
2023-04-07T07:01:58.074Z,21.18
2023-04-07T07:04:28.937Z,21.47
2023-04-07T07:06:57.979Z,20.71
2023-04-07T07:09:29.529Z,20.82
2023-04-07T07:15:07.270Z,21.09
2023-04-07T07:17:41.143Z,20.65
2023-04-07T07:20:10.559Z,21.30
2023-04-07T07:22:42.400Z,22.02
2023-04-07T07:25:10.548Z,21.70
2023-04-07T07:27:44.768Z,21.46
2023-04-07T07:30:16.946Z,21.50
2023-04-07T07:32:53.977Z,21.73
2023-04-07T07:35:22.726Z,21.47
2023-04-07T07:37:51.709Z,21.63
2023-04-07T07:40:20.293Z,21.77
2023-04-07T07:42:57.755Z,21.50
2023-04-07T07:45:25.098Z,21.24
2023-04-07T07:47:56.521Z,21.29
2023-04-07T07:50:24.114Z,21.34
2023-04-07T07:52:52.472Z,21.30
2023-04-07T07:55:24.419Z,21.16
2023-04-07T07:57:51.754Z,21.10
2023-04-07T08:00:19.385Z,20.83
2023-04-07T08:02:50.457Z,20.59
2023-04-07T08:05:23.354Z,20.73
2023-04-07T08:07:52.700Z,20.94
2023-04-07T08:10:21.797Z,21.06
2023-04-07T08:12:58.625Z,21.36
2023-04-07T08:15:26.960Z,21.20
2023-04-07T08:17:56.391Z,21.46
2023-04-07T08:20:26.805Z,21.48
2023-04-07T08:22:54.354Z,21.37
2023-04-07T08:25:26.198Z,21.78
2023-04-07T08:27:56.436Z,21.53
2023-04-07T08:30:24.341Z,21.69
2023-04-07T08:33:11.433Z,21.44
2023-04-07T08:35:38.646Z,20.90
2023-04-07T08:38:08.650Z,20.61
2023-04-07T08:40:38.308Z,20.26
2023-04-07T08:43:08.941Z,19.85
2023-04-07T08:45:40.391Z,19.62
2023-04-07T08:48:52.514Z,19.72
2023-04-07T08:51:35.996Z,19.08
2023-04-07T08:54:23.005Z,19.04
2023-04-07T08:56:53.706Z,19.06
2023-04-07T08:59:27.031Z,18.96
2023-04-07T09:01:55.011Z,19.40
2023-04-07T09:04:24.215Z,19.47
2023-04-07T09:06:51.176Z,19.36
2023-04-07T09:09:18.287Z,19.50
2023-04-07T09:11:48.917Z,20.01
2023-04-07T09:14:18.097Z,20.15
2023-04-07T09:16:45.176Z,19.83
2023-04-07T09:19:13.172Z,20.23
2023-04-07T09:21:50.938Z,19.96
2023-04-07T09:24:27.730Z,20.01
2023-04-07T09:27:25.755Z,19.47
2023-04-07T09:29:53.495Z,20.03
2023-04-07T09:32:39.081Z,20.55
2023-04-07T09:35:06.594Z,20.60
2023-04-07T09:37:33.698Z,20.47
2023-04-07T09:40:02.263Z,20.47
2023-04-07T09:42:34.167Z,19.89
2023-04-07T09:45:01.911Z,19.92
2023-04-07T09:47:29.621Z,19.76
2023-04-07T09:49:57.764Z,19.66
2023-04-07T09:52:53.973Z,19.56
2023-04-07T09:55:31.295Z,19.54
2023-04-07T09:57:59.020Z,19.01
2023-04-07T10:00:36.477Z,18.66
2023-04-07T10:03:04.727Z,18.72
2023-04-07T10:05:32.644Z,18.56
2023-04-07T10:08:02.284Z,18.74
2023-04-07T10:10:31.090Z,18.55
2023-04-07T10:12:59.662Z,18.21
2023-04-07T10:15:27.379Z,17.62
2023-04-07T10:17:56.968Z,17.67
2023-04-07T10:20:28.329Z,18.29
2023-04-07T10:22:55.118Z,18.91
2023-04-07T10:25:23.004Z,19.05
2023-04-07T10:28:03.221Z,18.70
2023-04-07T10:30:33.849Z,19.18
2023-04-07T10:33:47.067Z,19.06
2023-04-07T10:36:16.307Z,19.43
2023-04-07T10:39:08.607Z,19.83
2023-04-07T10:41:43.354Z,19.58
2023-04-07T10:44:16.650Z,20.06
2023-04-07T10:46:49.405Z,20.52
2023-04-07T10:49:18.539Z,20.69
2023-04-07T10:52:19.620Z,20.72
2023-04-07T10:54:47.541Z,20.90
2023-04-07T10:57:15.220Z,21.64
2023-04-07T11:00:11.451Z,21.81
2023-04-07T11:02:39.629Z,22.61
2023-04-07T11:05:11.316Z,22.15
2023-04-07T11:07:50.728Z,22.37
2023-04-07T11:10:23.323Z,22.62
2023-04-07T11:13:17.957Z,22.70
2023-04-07T11:15:45.002Z,21.85
2023-04-07T11:18:19.663Z,22.08
2023-04-07T11:21:04.737Z,21.28
2023-04-07T11:23:43.484Z,20.93
2023-04-07T11:26:12.754Z,20.60
2023-04-07T11:28:50.856Z,20.38
2023-04-07T11:31:30.697Z,20.39
2023-04-07T11:34:02.699Z,20.01
2023-04-07T11:36:33.897Z,20.11
2023-04-07T11:39:20.419Z,20.31
2023-04-07T11:41:49.424Z,20.22
2023-04-07T11:44:17.299Z,19.72
2023-04-07T11:47:00.590Z,19.33
2023-04-07T11:49:28.123Z,19.55
2023-04-07T11:52:06.547Z,20.20
2023-04-07T11:54:46.513Z,20.19
2023-04-07T11:57:13.910Z,20.58
2023-04-07T11:59:44.323Z,20.09
2023-04-07T12:02:11.384Z,19.52
2023-04-07T12:04:41.254Z,19.49
2023-04-07T12:07:10.385Z,19.94
2023-04-07T12:09:38.532Z,19.51
2023-04-07T12:12:07.085Z,19.51
2023-04-07T12:14:54.885Z,19.54
2023-04-07T12:17:22.947Z,19.20
2023-04-07T12:19:52.025Z,19.65
2023-04-07T12:22:24.012Z,19.44
2023-04-07T12:24:51.699Z,18.60
2023-04-07T12:27:35.802Z,19.00
2023-04-07T12:30:10.852Z,19.19
2023-04-07T12:32:39.542Z,19.31
2023-04-07T12:35:14.519Z,19.57
2023-04-07T12:37:42.018Z,19.70
2023-04-07T12:40:11.542Z,19.66
2023-04-07T12:42:39.005Z,19.50
2023-04-07T12:45:08.268Z,19.90
2023-04-07T12:47:37.318Z,20.22
2023-04-07T12:53:18.875Z,20.32
2023-04-07T12:56:09.452Z,20.66
2023-04-07T12:58:42.369Z,21.02
2023-04-07T13:01:12.647Z,20.94
2023-04-07T13:03:44.707Z,20.65
2023-04-07T13:06:18.212Z,20.98
2023-04-07T13:08:46.089Z,20.71
2023-04-07T13:11:13.366Z,20.75
2023-04-07T13:13:48.011Z,21.54
2023-04-07T13:16:21.394Z,21.43
2023-04-07T13:18:48.357Z,21.58
2023-04-07T13:21:43.705Z,20.93
2023-04-07T13:24:09.272Z,20.61
2023-04-07T13:26:40.519Z,20.58
2023-04-07T13:29:07.504Z,20.60
2023-04-07T13:31:36.023Z,20.83
2023-04-07T13:34:04.944Z,21.13
2023-04-07T13:36:34.717Z,21.40
2023-04-07T13:39:06.115Z,21.55
2023-04-07T13:41:35.359Z,21.46
2023-04-07T13:44:04.463Z,21.55
2023-04-07T13:46:32.472Z,21.56
2023-04-07T13:49:00.932Z,21.48
2023-04-07T13:51:29.358Z,22.11
2023-04-07T13:53:59.798Z,22.58
2023-04-07T13:56:30.151Z,23.13
2023-04-07T13:59:00.650Z,23.38
2023-04-07T14:01:29.769Z,24.01
2023-04-07T14:04:00.744Z,24.11
2023-04-07T14:06:29.193Z,24.50
2023-04-07T14:08:58.439Z,24.76
2023-04-07T14:11:25.858Z,25.17
2023-04-07T14:13:57.884Z,25.05
2023-04-07T14:16:25.511Z,24.64
2023-04-07T14:18:53.152Z,24.05
2023-04-07T14:21:27.724Z,24.20
2023-04-07T14:23:55.779Z,24.89
2023-04-07T14:26:26.784Z,24.69
2023-04-07T14:28:55.138Z,24.37
2023-04-07T14:31:25.134Z,24.05
2023-04-07T14:33:52.963Z,23.88
2023-04-07T14:36:20.732Z,24.00
2023-04-07T14:38:50.896Z,24.18
2023-04-07T14:41:17.743Z,24.81
2023-04-07T14:43:47.791Z,24.18
2023-04-07T14:46:24.215Z,24.53
2023-04-07T14:48:58.394Z,24.42
2023-04-07T14:51:26.850Z,24.51
2023-04-07T14:53:58.995Z,24.67
2023-04-07T14:56:29.119Z,24.67
2023-04-07T14:58:59.987Z,25.23
2023-04-07T15:01:29.493Z,25.80
2023-04-07T15:04:00.420Z,25.69
2023-04-07T15:06:47.294Z,25.29
2023-04-07T15:09:18.959Z,25.73
2023-04-07T15:11:46.824Z,25.40
2023-04-07T15:14:16.954Z,25.59
2023-04-07T15:17:01.661Z,25.65
2023-04-07T15:19:29.123Z,25.40
2023-04-07T15:22:03.269Z,25.34
2023-04-07T15:24:31.318Z,25.03
2023-04-07T15:26:58.796Z,24.83
2023-04-07T15:29:44.638Z,25.02
2023-04-07T15:32:24.533Z,25.10
2023-04-07T15:34:55.279Z,25.22
2023-04-07T15:37:27.041Z,24.90
2023-04-07T15:39:54.772Z,24.54
2023-04-07T15:42:24.175Z,24.63
2023-04-07T15:44:53.100Z,24.50
2023-04-07T15:47:22.622Z,24.87
2023-04-07T15:49:59.226Z,24.63
2023-04-07T15:52:31.438Z,24.90
2023-04-07T15:54:58.595Z,24.69
2023-04-07T15:57:28.530Z,24.78
2023-04-07T15:59:56.073Z,25.18
2023-04-07T16:02:23.843Z,25.46
2023-04-07T16:04:51.558Z,25.74
2023-04-07T16:07:18.409Z,25.93
2023-04-07T16:09:46.685Z,26.28
2023-04-07T16:12:14.772Z,26.14
2023-04-07T16:14:45.008Z,26.02
2023-04-07T16:17:16.238Z,26.00
2023-04-07T16:19:44.657Z,26.39
2023-04-07T16:22:16.787Z,26.50
2023-04-07T16:24:45.583Z,26.76
2023-04-07T16:27:15.269Z,26.55
2023-04-07T16:29:43.380Z,26.96
2023-04-07T16:32:12.275Z,27.15
2023-04-07T16:34:40.541Z,27.10
2023-04-07T16:37:09.222Z,27.31
2023-04-07T16:39:38.527Z,27.06
2023-04-07T16:42:06.568Z,27.39
2023-04-07T16:44:34.732Z,27.51
2023-04-07T16:47:03.481Z,27.63
2023-04-07T16:49:34.174Z,27.74
2023-04-07T16:52:02.617Z,27.67
2023-04-07T16:54:36.496Z,27.68
2023-04-07T16:57:03.860Z,27.71
2023-04-07T16:59:34.025Z,27.99
2023-04-07T17:02:11.205Z,27.99
2023-04-07T17:04:39.679Z,28.33
2023-04-07T17:07:07.016Z,28.84
2023-04-07T17:09:34.105Z,28.84
2023-04-07T17:12:23.269Z,28.42
2023-04-07T17:14:52.470Z,28.66
2023-04-07T17:17:19.382Z,29.17
2023-04-07T17:19:46.811Z,29.50
2023-04-07T17:22:13.856Z,29.57
2023-04-07T17:24:43.183Z,29.75
2023-04-07T17:27:10.320Z,30.09
2023-04-07T17:29:37.776Z,30.55
2023-04-07T17:32:15.930Z,30.37
2023-04-07T17:34:43.981Z,30.61
2023-04-07T17:37:19.973Z,31.05
2023-04-07T17:40:02.833Z,31.69
2023-04-07T17:42:35.599Z,31.99
2023-04-07T17:45:08.382Z,32.42
2023-04-07T17:47:41.601Z,32.17
2023-04-07T17:50:12.857Z,32.33
2023-04-07T17:56:04.956Z,32.87
2023-04-07T18:11:14.081Z,33.22
2023-04-07T18:13:46.477Z,33.37
2023-04-07T18:18:10.595Z,39.41
2023-04-07T18:20:38.157Z,37.27
2023-04-07T18:23:05.027Z,36.77
2023-04-07T18:25:33.451Z,36.73
2023-04-07T18:28:01.938Z,36.27
2023-04-07T18:30:28.784Z,36.17
2023-04-07T18:32:55.833Z,36.35
2023-04-07T18:35:22.526Z,36.41
2023-04-07T18:37:49.236Z,36.15
2023-04-07T18:40:16.017Z,36.33
2023-04-07T18:42:42.772Z,36.37
2023-04-07T18:45:09.659Z,36.30
2023-04-07T18:47:36.486Z,36.03
2023-04-07T18:50:04.438Z,36.54
2023-04-07T18:52:31.574Z,36.97
2023-04-07T18:55:00.628Z,36.85
2023-04-07T18:57:27.624Z,36.67
2023-04-07T18:59:54.169Z,36.52
2023-04-07T19:02:20.839Z,36.94
2023-04-07T19:04:48.636Z,37.39
2023-04-07T19:07:15.240Z,37.59
2023-04-07T19:09:46.074Z,37.93
2023-04-07T19:12:12.699Z,38.36
2023-04-07T19:14:44.538Z,38.92
2023-04-07T19:17:11.528Z,38.90
2023-04-07T19:19:38.606Z,38.92
2023-04-07T19:22:11.934Z,39.67
2023-04-07T19:24:39.607Z,39.72
2023-04-07T19:27:06.507Z,40.00
2023-04-07T19:29:34.731Z,40.07
2023-04-07T19:32:01.621Z,39.68
2023-04-07T19:34:28.798Z,39.49
2023-04-07T19:36:56.574Z,39.21
2023-04-07T19:39:23.139Z,39.33
2023-04-07T19:41:50.252Z,39.52
2023-04-07T19:44:17.688Z,39.63
2023-04-07T19:46:44.640Z,39.47
2023-04-07T19:49:11.419Z,39.48
2023-04-07T19:51:38.241Z,39.55
2023-04-07T19:54:05.440Z,39.58
2023-04-07T19:56:32.313Z,40.35
2023-04-07T19:58:58.804Z,40.71
2023-04-07T20:01:25.735Z,40.42
2023-04-07T20:03:52.950Z,40.27
2023-04-07T20:06:24.009Z,40.42
2023-04-07T20:08:50.765Z,40.51
2023-04-07T20:11:17.629Z,40.67
2023-04-07T20:13:49.494Z,40.57
2023-04-07T20:16:16.324Z,40.46
2023-04-07T20:18:43.134Z,40.46
2023-04-07T20:21:11.820Z,40.85
2023-04-07T20:23:42.431Z,41.04
2023-04-07T20:26:09.114Z,41.00
2023-04-07T20:28:36.504Z,40.75
2023-04-07T20:31:03.069Z,40.56
2023-04-07T20:33:30.080Z,40.65
2023-04-07T20:35:56.817Z,40.87
2023-04-07T20:38:24.316Z,41.03
2023-04-07T20:40:53.568Z,41.27
2023-04-07T20:43:22.778Z,41.35
2023-04-07T20:45:49.484Z,41.20
2023-04-07T20:48:17.729Z,41.21
2023-04-07T20:50:44.513Z,40.46
2023-04-07T20:53:16.849Z,39.99
2023-04-07T20:55:43.741Z,39.79
2023-04-07T20:58:10.526Z,40.19
2023-04-07T21:00:37.856Z,40.46
2023-04-07T21:03:05.592Z,40.59
2023-04-07T21:05:32.663Z,40.73
2023-04-07T21:07:59.206Z,40.68
2023-04-07T21:10:26.294Z,40.65
2023-04-07T21:12:52.794Z,41.05
2023-04-07T21:15:24.864Z,41.06
2023-04-07T21:17:52.474Z,40.96
2023-04-07T21:20:19.175Z,41.07
2023-04-07T21:22:47.220Z,41.07
2023-04-07T21:25:14.163Z,41.30
2023-04-07T21:27:40.689Z,41.15
2023-04-07T21:30:08.211Z,41.11
2023-04-07T21:32:35.990Z,41.41
2023-04-07T21:35:03.074Z,41.22
2023-04-07T21:37:29.956Z,41.46
2023-04-07T21:39:56.478Z,41.50
2023-04-07T21:42:23.040Z,41.42
2023-04-07T21:44:49.730Z,41.69
2023-04-07T21:47:16.905Z,41.88
2023-04-07T21:49:43.440Z,42.59
2023-04-07T21:52:10.761Z,42.58
2023-04-07T21:54:37.958Z,42.40
2023-04-07T21:57:06.619Z,42.34
2023-04-07T21:59:35.337Z,42.72
2023-04-07T22:02:02.212Z,43.49
2023-04-07T22:04:29.423Z,43.32
2023-04-07T22:06:57.413Z,43.35
2023-04-07T22:09:23.869Z,43.81
2023-04-07T22:11:53.594Z,43.87
2023-04-07T22:14:24.262Z,43.55
2023-04-07T22:16:51.460Z,43.65
2023-04-07T22:19:18.840Z,43.61
2023-04-07T22:21:46.925Z,43.61
2023-04-07T22:24:13.815Z,43.24
2023-04-07T22:26:40.618Z,42.85
2023-04-07T22:29:08.802Z,42.88
2023-04-07T22:31:41.231Z,43.08
2023-04-07T22:34:09.249Z,43.05
2023-04-07T22:36:36.015Z,42.59
2023-04-07T22:39:05.076Z,42.68
2023-04-07T22:41:31.722Z,43.04
2023-04-07T22:44:01.032Z,42.64
2023-04-07T22:46:28.637Z,42.68
2023-04-07T22:48:55.928Z,42.96
2023-04-07T22:51:22.496Z,42.62
2023-04-07T22:53:50.034Z,43.06
2023-04-07T22:56:18.624Z,43.51
2023-04-07T22:58:45.769Z,43.77
2023-04-07T23:01:15.096Z,43.65
2023-04-07T23:03:43.648Z,44.14
2023-04-07T23:06:10.577Z,44.16
2023-04-07T23:08:40.625Z,44.08
2023-04-07T23:11:09.093Z,44.02
2023-04-07T23:13:37.800Z,44.00
2023-04-07T23:16:05.675Z,43.35
2023-04-07T23:18:32.605Z,43.28
2023-04-07T23:20:59.724Z,43.66
2023-04-07T23:23:29.064Z,43.39
2023-04-07T23:25:55.857Z,44.00
2023-04-07T23:28:22.539Z,44.28
2023-04-07T23:30:49.130Z,44.39
2023-04-07T23:33:16.821Z,44.15
2023-04-07T23:35:43.385Z,44.03
2023-04-07T23:38:10.483Z,44.45
2023-04-07T23:40:37.442Z,43.96
2023-04-07T23:43:05.947Z,44.39
2023-04-07T23:45:32.697Z,44.64
2023-04-07T23:47:59.855Z,44.98
2023-04-07T23:50:27.821Z,45.18
2023-04-07T23:52:55.644Z,45.24
2023-04-07T23:55:22.498Z,45.23
2023-04-07T23:57:49.113Z,45.53
